createdAt,value
2019-03-29T00:01:08.915Z,16.30
2019-03-29T00:03:13.140Z,17.95
2019-03-29T00:05:19.185Z,17.40
2019-03-29T00:07:23.033Z,18.17
2019-03-29T00:09:27.860Z,17.73
2019-03-29T00:11:33.855Z,17.57
2019-03-29T00:13:38.086Z,16.90
2019-03-29T00:15:41.898Z,17.40
2019-03-29T00:17:46.083Z,17.27
2019-03-29T00:19:50.215Z,16.70
2019-03-29T00:21:54.304Z,16.30
2019-03-29T00:24:06.772Z,15.78
2019-03-29T00:26:04.373Z,16.37
2019-03-29T00:28:08.586Z,17.25
2019-03-29T00:30:12.798Z,17.12
2019-03-29T00:32:16.922Z,16.70
2019-03-29T00:34:21.024Z,16.67
2019-03-29T00:36:25.879Z,16.67
2019-03-29T00:38:29.754Z,16.30
2019-03-29T00:40:33.850Z,14.90
2019-03-29T00:42:37.985Z,15.53
2019-03-29T00:44:42.077Z,17.02
2019-03-29T00:46:46.195Z,15.65
2019-03-29T00:48:52.353Z,15.08
2019-03-29T00:50:56.178Z,15.13
2019-03-29T00:53:00.112Z,13.90
2019-03-29T00:55:04.196Z,14.53
2019-03-29T00:57:08.372Z,14.10
2019-03-29T00:59:14.970Z,15.43
2019-03-29T01:01:19.266Z,15.48
2019-03-29T01:03:23.093Z,15.20
2019-03-29T01:05:26.952Z,15.23
2019-03-29T01:07:30.930Z,15.23
2019-03-29T01:09:35.546Z,14.13
2019-03-29T01:11:40.899Z,13.55
2019-03-29T01:13:45.464Z,14.38
2019-03-29T01:15:49.666Z,13.00
2019-03-29T01:17:53.783Z,13.62
2019-03-29T01:19:59.220Z,15.25
2019-03-29T01:22:03.437Z,13.72
2019-03-29T01:24:07.560Z,12.55
2019-03-29T01:26:11.650Z,14.23
2019-03-29T01:28:15.874Z,15.75
2019-03-29T01:30:19.978Z,15.48
2019-03-29T01:32:23.814Z,15.20
2019-03-29T01:34:27.994Z,13.50
2019-03-29T01:36:32.103Z,15.68
2019-03-29T01:38:36.215Z,14.50
2019-03-29T01:40:41.153Z,14.05
2019-03-29T01:42:45.868Z,14.95
2019-03-29T01:44:53.883Z,12.50
2019-03-29T01:46:59.201Z,14.28
2019-03-29T01:49:03.314Z,13.68
2019-03-29T01:51:07.452Z,12.82
2019-03-29T01:53:11.346Z,13.03
2019-03-29T01:55:16.164Z,11.75
2019-03-29T01:57:20.014Z,12.82
2019-03-29T01:59:24.175Z,12.10
2019-03-29T02:01:29.169Z,13.55
2019-03-29T02:03:33.102Z,12.53
2019-03-29T02:05:37.246Z,12.50
2019-03-29T02:07:41.446Z,13.20
2019-03-29T02:09:45.668Z,11.00
2019-03-29T02:11:49.508Z,13.10
2019-03-29T02:13:56.332Z,12.05
2019-03-29T02:16:03.966Z,11.45
2019-03-29T02:18:07.930Z,11.73
2019-03-29T02:20:12.246Z,11.35
2019-03-29T02:22:16.341Z,11.95
2019-03-29T02:24:23.287Z,11.15
2019-03-29T02:26:28.372Z,11.12
2019-03-29T02:28:32.578Z,11.20
2019-03-29T02:30:36.801Z,10.00
2019-03-29T02:32:40.629Z,10.95
2019-03-29T02:34:44.805Z,9.80
2019-03-29T02:36:49.024Z,10.25
2019-03-29T02:38:55.476Z,9.98
2019-03-29T02:40:59.372Z,10.48
2019-03-29T02:43:03.502Z,9.15
2019-03-29T02:45:07.830Z,11.12
2019-03-29T02:47:12.019Z,10.23
2019-03-29T02:49:16.163Z,10.15
2019-03-29T02:51:20.237Z,10.05
2019-03-29T02:53:25.985Z,10.03
2019-03-29T02:55:29.824Z,9.55
2019-03-29T02:57:35.754Z,10.05
2019-03-29T02:59:39.957Z,9.38
2019-03-29T03:01:45.420Z,8.63
2019-03-29T03:03:49.610Z,8.95
2019-03-29T03:05:54.647Z,8.98
2019-03-29T03:07:59.358Z,8.70
2019-03-29T03:10:05.293Z,9.60
2019-03-29T03:12:09.114Z,8.13
2019-03-29T03:14:13.258Z,9.88
2019-03-29T03:16:17.387Z,9.08
2019-03-29T03:18:24.139Z,8.38
2019-03-29T03:20:28.328Z,8.45
2019-03-29T03:22:32.483Z,7.90
2019-03-29T03:24:37.550Z,7.58
2019-03-29T03:26:41.693Z,7.80
2019-03-29T03:28:45.812Z,6.58
2019-03-29T03:30:49.909Z,7.00
2019-03-29T03:32:54.146Z,7.67
2019-03-29T03:34:58.035Z,7.87
2019-03-29T03:37:01.846Z,7.03
2019-03-29T03:39:08.740Z,8.80
2019-03-29T03:41:12.574Z,7.80
2019-03-29T03:43:16.717Z,7.87
2019-03-29T03:45:21.556Z,8.03
2019-03-29T03:47:25.657Z,7.10
2019-03-29T03:49:29.786Z,7.58
2019-03-29T03:51:34.406Z,8.78
2019-03-29T03:53:40.546Z,10.53
2019-03-29T03:55:44.556Z,9.85
2019-03-29T03:57:52.667Z,8.78
2019-03-29T03:59:57.276Z,8.85
2019-03-29T04:02:01.530Z,7.85
2019-03-29T04:04:05.707Z,8.98
2019-03-29T04:06:09.520Z,9.55
2019-03-29T04:08:13.837Z,7.97
2019-03-29T04:10:18.045Z,8.40
2019-03-29T04:12:24.769Z,8.33
2019-03-29T04:14:28.566Z,10.00
2019-03-29T04:16:32.729Z,10.23
2019-03-29T04:18:37.878Z,10.10
2019-03-29T04:20:42.792Z,10.80
2019-03-29T04:22:46.616Z,10.20
2019-03-29T04:24:50.468Z,14.45
2019-03-29T04:26:54.704Z,11.18
2019-03-29T04:29:04.576Z,13.15
2019-03-29T04:31:06.515Z,15.45
2019-03-29T04:33:11.258Z,11.68
2019-03-29T04:35:15.750Z,11.20
2019-03-29T04:37:19.980Z,11.03
2019-03-29T04:39:23.829Z,9.98
2019-03-29T04:41:27.978Z,11.10
2019-03-29T04:43:32.096Z,10.85
2019-03-29T04:45:36.316Z,11.38
2019-03-29T04:47:40.428Z,14.07
2019-03-29T04:49:46.169Z,14.07
2019-03-29T04:51:53.996Z,13.28
2019-03-29T04:54:01.357Z,12.43
2019-03-29T04:56:05.461Z,14.07
2019-03-29T04:58:09.665Z,13.45
2019-03-29T05:00:14.445Z,15.13
2019-03-29T05:02:18.614Z,14.00
2019-03-29T05:04:22.823Z,13.43
2019-03-29T05:06:29.186Z,16.15
2019-03-29T05:08:33.419Z,14.70
2019-03-29T05:10:37.614Z,16.50
2019-03-29T05:12:42.742Z,15.98
2019-03-29T05:14:46.959Z,14.47
2019-03-29T05:16:51.069Z,18.92
2019-03-29T05:18:55.285Z,15.90
2019-03-29T05:20:59.503Z,17.70
2019-03-29T05:23:03.330Z,15.40
2019-03-29T05:25:07.515Z,18.15
2019-03-29T05:27:11.365Z,17.48
2019-03-29T05:29:15.526Z,17.25
2019-03-29T05:31:19.637Z,17.30
2019-03-29T05:33:23.851Z,16.17
2019-03-29T05:35:28.643Z,15.90
2019-03-29T05:37:32.779Z,16.23
2019-03-29T05:39:37.003Z,15.85
2019-03-29T05:41:41.105Z,18.87
2019-03-29T05:43:45.246Z,17.98
2019-03-29T05:45:50.970Z,18.23
2019-03-29T05:47:55.301Z,19.12
2019-03-29T05:49:59.119Z,18.00
2019-03-29T05:52:03.301Z,17.23
2019-03-29T05:54:07.531Z,17.27
2019-03-29T05:56:11.725Z,15.53
2019-03-29T05:58:17.775Z,16.42
2019-03-29T06:00:22.474Z,19.35
2019-03-29T06:02:26.611Z,16.85
2019-03-29T06:04:30.844Z,15.50
2019-03-29T06:06:34.949Z,15.95
2019-03-29T06:08:39.153Z,17.62
2019-03-29T06:10:49.298Z,16.87
2019-03-29T06:12:50.341Z,18.60
2019-03-29T06:14:54.177Z,18.15
2019-03-29T06:16:58.354Z,16.45
2019-03-29T06:19:02.463Z,16.62
2019-03-29T06:21:06.301Z,17.10
2019-03-29T06:23:10.221Z,16.48
2019-03-29T06:25:14.981Z,16.10
2019-03-29T06:27:21.247Z,16.57
2019-03-29T06:29:25.378Z,18.35
2019-03-29T06:31:29.590Z,19.75
2019-03-29T06:33:33.419Z,18.95
2019-03-29T06:35:40.329Z,18.70
2019-03-29T06:37:46.085Z,16.93
2019-03-29T06:39:52.983Z,19.62
2019-03-29T06:41:56.805Z,17.85
2019-03-29T06:44:01.007Z,16.65
2019-03-29T06:46:05.216Z,18.10
2019-03-29T06:48:09.052Z,17.37
2019-03-29T06:50:14.154Z,18.32
2019-03-29T06:52:18.573Z,17.30
2019-03-29T06:54:23.283Z,17.70
2019-03-29T06:56:27.411Z,19.70
2019-03-29T06:58:33.559Z,22.27
2019-03-29T07:00:37.679Z,21.30
2019-03-29T07:02:41.795Z,19.45
2019-03-29T07:04:45.707Z,20.45
2019-03-29T07:06:49.562Z,19.55
2019-03-29T07:08:57.178Z,18.87
2019-03-29T07:11:01.017Z,17.87
2019-03-29T07:13:05.195Z,16.52
2019-03-29T07:15:09.715Z,18.17
2019-03-29T07:17:13.930Z,17.07
2019-03-29T07:19:18.045Z,17.25
2019-03-29T07:21:22.456Z,16.45
2019-03-29T07:23:37.008Z,16.42
2019-03-29T07:25:40.827Z,16.23
2019-03-29T07:27:51.901Z,16.05
2019-03-29T07:29:50.995Z,16.55
2019-03-29T07:31:55.193Z,14.87
2019-03-29T07:34:00.406Z,14.83
2019-03-29T07:36:07.617Z,16.20
2019-03-29T07:38:11.831Z,15.72
2019-03-29T07:40:15.955Z,15.25
2019-03-29T07:42:20.145Z,17.40
2019-03-29T07:44:24.747Z,15.88
2019-03-29T07:46:28.890Z,13.65
2019-03-29T07:48:34.634Z,14.07
2019-03-29T07:50:38.704Z,14.95
2019-03-29T07:52:42.533Z,13.83
2019-03-29T07:54:46.379Z,14.13
2019-03-29T07:56:50.557Z,11.35
2019-03-29T07:58:54.677Z,12.88
2019-03-29T08:00:59.996Z,12.53
2019-03-29T08:03:03.810Z,11.12
2019-03-29T08:05:07.985Z,10.65
2019-03-29T08:07:12.151Z,10.50
2019-03-29T08:09:22.206Z,11.33
2019-03-29T08:11:26.340Z,10.13
2019-03-29T08:13:27.860Z,9.58
2019-03-29T08:15:32.058Z,10.48
2019-03-29T08:17:36.283Z,10.38
2019-03-29T08:19:40.490Z,10.75
2019-03-29T08:21:44.312Z,10.15
2019-03-29T08:23:48.496Z,10.53
2019-03-29T08:25:52.306Z,11.07
2019-03-29T08:27:56.508Z,10.05
2019-03-29T08:30:00.615Z,11.25
2019-03-29T08:32:06.892Z,11.75
2019-03-29T08:34:10.992Z,11.15
2019-03-29T08:36:14.898Z,10.33
2019-03-29T08:38:18.706Z,10.30
2019-03-29T08:40:22.602Z,11.57
2019-03-29T08:42:26.504Z,11.13
2019-03-29T08:44:30.309Z,11.50
2019-03-29T08:46:35.642Z,16.30
2019-03-29T08:48:39.557Z,13.63
2019-03-29T08:50:44.282Z,11.50
2019-03-29T08:52:48.102Z,11.80
2019-03-29T08:54:52.910Z,11.00
2019-03-29T08:56:57.107Z,14.63
2019-03-29T08:59:00.933Z,12.60
2019-03-29T09:01:05.125Z,10.67
2019-03-29T09:03:08.962Z,10.77
2019-03-29T09:05:12.860Z,11.47
2019-03-29T09:07:18.158Z,10.27
2019-03-29T09:09:21.998Z,13.20
2019-03-29T09:11:25.902Z,10.40
2019-03-29T09:13:29.798Z,10.43
2019-03-29T09:15:33.602Z,10.03
2019-03-29T09:17:37.128Z,9.40
2019-03-29T09:19:41.009Z,11.20
2019-03-29T09:21:44.915Z,9.50
2019-03-29T09:23:48.927Z,9.90
2019-03-29T09:25:52.855Z,9.40
2019-03-29T09:27:56.737Z,8.63
2019-03-29T09:30:00.662Z,8.33
2019-03-29T09:32:04.647Z,8.90
2019-03-29T09:34:08.587Z,8.57
2019-03-29T09:36:12.461Z,8.73
2019-03-29T09:38:16.468Z,8.30
2019-03-29T09:40:20.242Z,12.20
2019-03-29T09:42:29.536Z,7.77
2019-03-29T09:44:29.948Z,8.27
2019-03-29T09:46:33.830Z,7.20
2019-03-29T09:48:37.361Z,12.03
2019-03-29T09:50:40.925Z,10.97
2019-03-29T09:52:44.836Z,7.80
2019-03-29T09:54:49.452Z,8.00
2019-03-29T09:56:53.355Z,7.23
2019-03-29T09:58:57.150Z,8.70
2019-03-29T10:01:00.974Z,8.60
2019-03-29T10:03:04.536Z,8.63
2019-03-29T10:05:08.670Z,8.07
2019-03-29T10:07:12.209Z,7.43
2019-03-29T10:09:15.764Z,8.43
2019-03-29T10:11:21.870Z,7.53
2019-03-29T10:13:24.536Z,8.63
2019-03-29T10:15:28.394Z,8.97
2019-03-29T10:17:31.924Z,9.37
2019-03-29T10:19:35.805Z,8.77
2019-03-29T10:21:39.353Z,10.80
2019-03-29T10:23:43.196Z,9.37
2019-03-29T10:25:47.335Z,8.77
2019-03-29T10:27:51.210Z,8.70
2019-03-29T10:29:55.018Z,7.80
2019-03-29T10:32:07.575Z,10.37
2019-03-29T10:34:08.358Z,8.90
2019-03-29T10:36:12.296Z,8.40
2019-03-29T10:38:18.292Z,9.47
2019-03-29T10:40:22.832Z,8.60
2019-03-29T10:42:26.646Z,9.03
2019-03-29T10:44:30.550Z,9.27
2019-03-29T10:46:34.451Z,9.57
2019-03-29T10:48:38.254Z,8.00
2019-03-29T10:50:42.064Z,7.80
2019-03-29T10:52:45.977Z,9.17
2019-03-29T10:54:50.203Z,7.97
2019-03-29T10:56:54.102Z,9.23
2019-03-29T10:58:57.649Z,9.27
2019-03-29T11:01:01.798Z,9.87
2019-03-29T11:03:06.516Z,9.43
2019-03-29T11:05:10.526Z,8.70
2019-03-29T11:07:14.048Z,9.13
2019-03-29T11:09:17.928Z,7.83
2019-03-29T11:11:21.536Z,7.60
2019-03-29T11:13:29.928Z,7.43
2019-03-29T11:15:34.256Z,9.20
2019-03-29T11:17:38.150Z,7.87
2019-03-29T11:19:42.004Z,7.60
2019-03-29T11:21:45.858Z,7.30
2019-03-29T11:23:49.764Z,6.50
2019-03-29T11:25:53.690Z,7.37
2019-03-29T11:27:57.586Z,7.73
2019-03-29T11:30:01.129Z,7.00
2019-03-29T11:32:05.036Z,8.20
2019-03-29T11:34:08.603Z,8.10
2019-03-29T11:36:13.218Z,8.50
2019-03-29T11:38:17.105Z,7.87
2019-03-29T11:40:21.019Z,7.77
2019-03-29T11:42:26.212Z,8.07
2019-03-29T11:44:30.424Z,7.70
2019-03-29T11:46:35.200Z,7.67
2019-03-29T11:48:39.096Z,7.50
2019-03-29T11:50:42.616Z,7.57
2019-03-29T11:52:46.515Z,7.67
2019-03-29T11:54:51.447Z,7.97
2019-03-29T11:56:55.242Z,8.20
2019-03-29T11:58:59.130Z,7.70
2019-03-29T12:01:05.487Z,8.40
2019-03-29T12:03:09.568Z,7.40
2019-03-29T12:05:14.018Z,7.03
2019-03-29T12:07:17.920Z,7.00
2019-03-29T12:09:21.434Z,7.27
2019-03-29T12:11:24.972Z,7.90
2019-03-29T12:13:40.531Z,8.97
2019-03-29T12:15:34.084Z,7.70
2019-03-29T12:17:37.964Z,7.70
2019-03-29T12:19:41.495Z,7.90
2019-03-29T12:21:45.368Z,7.40
2019-03-29T12:23:49.998Z,7.10
2019-03-29T12:25:53.517Z,6.77
2019-03-29T12:27:57.399Z,6.90
2019-03-29T12:30:01.312Z,6.47
2019-03-29T12:32:05.826Z,7.07
2019-03-29T12:34:09.716Z,6.77
2019-03-29T12:36:14.415Z,6.97
2019-03-29T12:38:18.569Z,6.77
2019-03-29T12:40:22.086Z,5.77
2019-03-29T12:42:25.952Z,6.67
2019-03-29T12:44:29.856Z,7.87
2019-03-29T12:46:33.740Z,7.03
2019-03-29T12:48:37.186Z,7.17
2019-03-29T12:50:40.734Z,7.70
2019-03-29T12:52:44.322Z,7.00
2019-03-29T12:54:48.187Z,6.67
2019-03-29T12:56:52.058Z,6.77
2019-03-29T12:58:55.870Z,6.00
2019-03-29T13:00:59.414Z,6.90
2019-03-29T13:03:03.819Z,6.33
2019-03-29T13:05:08.045Z,6.13
2019-03-29T13:07:11.758Z,6.00
2019-03-29T13:09:15.592Z,6.20
2019-03-29T13:11:19.509Z,5.77
2019-03-29T13:13:23.416Z,5.93
2019-03-29T13:15:26.923Z,5.97
2019-03-29T13:17:30.820Z,5.73
2019-03-29T13:19:34.715Z,6.23
2019-03-29T13:21:38.984Z,5.60
2019-03-29T13:23:42.529Z,5.50
2019-03-29T13:25:46.339Z,5.87
2019-03-29T13:27:49.873Z,5.90
2019-03-29T13:29:53.397Z,6.20
2019-03-29T13:31:58.480Z,5.43
2019-03-29T13:34:02.490Z,6.13
2019-03-29T13:36:09.105Z,6.17
2019-03-29T13:38:12.969Z,6.33
2019-03-29T13:40:16.847Z,4.77
2019-03-29T13:42:20.742Z,5.20
2019-03-29T13:44:26.787Z,5.00
2019-03-29T13:46:29.355Z,4.47
2019-03-29T13:48:33.188Z,4.90
2019-03-29T13:50:37.081Z,5.00
2019-03-29T13:52:40.937Z,5.10
2019-03-29T13:54:44.789Z,5.03
2019-03-29T13:56:48.696Z,5.60
2019-03-29T13:58:52.619Z,5.43
2019-03-29T14:00:56.517Z,6.17
2019-03-29T14:03:00.440Z,5.30
2019-03-29T14:05:05.941Z,5.00
2019-03-29T14:07:12.042Z,4.60
2019-03-29T14:09:15.107Z,4.83
2019-03-29T14:11:20.229Z,4.67
2019-03-29T14:13:24.058Z,4.87
2019-03-29T14:15:27.937Z,5.17
2019-03-29T14:17:31.857Z,5.03
2019-03-29T14:19:35.775Z,4.57
2019-03-29T14:21:39.309Z,5.23
2019-03-29T14:23:43.154Z,4.30
2019-03-29T14:25:46.960Z,4.47
2019-03-29T14:27:50.870Z,4.13
2019-03-29T14:30:04.158Z,4.43
2019-03-29T14:32:00.316Z,4.63
2019-03-29T14:34:03.902Z,4.93
2019-03-29T14:36:07.720Z,4.70
2019-03-29T14:38:11.619Z,7.33
2019-03-29T14:40:15.517Z,5.10
2019-03-29T14:42:19.437Z,4.80
2019-03-29T14:44:23.244Z,5.30
2019-03-29T14:46:27.133Z,5.40
2019-03-29T14:48:31.067Z,4.50
2019-03-29T14:50:34.851Z,5.30
2019-03-29T14:52:38.755Z,6.57
2019-03-29T14:54:42.282Z,4.63
2019-03-29T14:56:46.159Z,4.77
2019-03-29T14:58:50.074Z,4.23
2019-03-29T15:00:55.512Z,4.27
2019-03-29T15:02:59.530Z,4.47
2019-03-29T15:05:03.669Z,4.60
2019-03-29T15:07:07.193Z,4.50
2019-03-29T15:09:11.028Z,4.60
2019-03-29T15:11:22.146Z,4.77
2019-03-29T15:13:20.185Z,5.23
2019-03-29T15:15:24.575Z,5.43
2019-03-29T15:17:28.496Z,4.93
2019-03-29T15:19:32.400Z,4.87
2019-03-29T15:21:36.294Z,4.33
2019-03-29T15:23:40.509Z,5.13
2019-03-29T15:25:44.053Z,4.60
2019-03-29T15:27:49.451Z,4.73
2019-03-29T15:29:53.351Z,5.03
2019-03-29T15:31:57.293Z,5.17
2019-03-29T15:34:01.172Z,5.67
2019-03-29T15:36:05.637Z,5.93
2019-03-29T15:38:09.591Z,4.40
2019-03-29T15:40:13.500Z,4.73
2019-03-29T15:42:20.327Z,4.50
2019-03-29T15:44:22.835Z,5.03
2019-03-29T15:46:26.749Z,5.70
2019-03-29T15:48:30.726Z,6.67
2019-03-29T15:50:36.099Z,5.17
2019-03-29T15:52:39.905Z,5.20
2019-03-29T15:54:43.456Z,5.70
2019-03-29T15:56:47.877Z,5.10
2019-03-29T15:58:51.417Z,5.13
2019-03-29T16:00:54.985Z,8.53
2019-03-29T16:02:58.804Z,5.37
2019-03-29T16:05:02.345Z,4.50
2019-03-29T16:07:05.869Z,4.47
2019-03-29T16:09:09.701Z,5.27
2019-03-29T16:11:17.136Z,7.17
2019-03-29T16:13:19.151Z,7.70
2019-03-29T16:15:34.855Z,6.43
2019-03-29T16:17:29.236Z,6.17
2019-03-29T16:19:33.132Z,6.10
2019-03-29T16:21:37.031Z,5.43
2019-03-29T16:23:40.957Z,4.87
2019-03-29T16:25:44.843Z,5.57
2019-03-29T16:27:48.745Z,5.37
2019-03-29T16:29:52.305Z,4.63
2019-03-29T16:31:55.832Z,5.10
2019-03-29T16:33:59.746Z,6.00
2019-03-29T16:36:03.669Z,5.70
2019-03-29T16:38:07.564Z,5.90
2019-03-29T16:40:11.859Z,6.20
2019-03-29T16:42:15.763Z,6.27
2019-03-29T16:44:21.212Z,5.67
2019-03-29T16:46:24.727Z,4.67
2019-03-29T16:48:28.621Z,14.77
2019-03-29T16:50:32.541Z,6.47
2019-03-29T16:52:36.444Z,6.00
2019-03-29T16:54:40.332Z,5.87
2019-03-29T16:56:44.237Z,5.90
2019-03-29T16:58:48.156Z,6.43
2019-03-29T17:00:52.069Z,5.50
2019-03-29T17:02:55.955Z,9.10
2019-03-29T17:04:59.861Z,6.83
2019-03-29T17:07:03.399Z,6.83
2019-03-29T17:09:08.165Z,7.53
2019-03-29T17:11:11.978Z,6.30
2019-03-29T17:13:15.891Z,6.00
2019-03-29T17:15:19.796Z,7.07
2019-03-29T17:17:23.705Z,6.60
2019-03-29T17:19:27.511Z,5.60
2019-03-29T17:21:31.027Z,7.43
2019-03-29T17:23:34.914Z,6.13
2019-03-29T17:25:38.717Z,5.90
2019-03-29T17:27:42.613Z,6.20
2019-03-29T17:29:48.649Z,7.10
2019-03-29T17:31:53.389Z,7.60
2019-03-29T17:33:57.209Z,6.00
2019-03-29T17:36:01.093Z,5.73
2019-03-29T17:38:04.960Z,5.77
2019-03-29T17:40:09.325Z,5.17
2019-03-29T17:42:13.119Z,5.53
2019-03-29T17:44:17.126Z,7.17
2019-03-29T17:46:20.935Z,7.73
2019-03-29T17:48:24.491Z,7.37
2019-03-29T17:50:28.347Z,6.17
2019-03-29T17:52:32.255Z,4.83
2019-03-29T17:54:36.088Z,5.70
2019-03-29T17:56:40.368Z,5.47
2019-03-29T17:58:44.039Z,5.43
2019-03-29T18:00:47.899Z,5.13
2019-03-29T18:02:51.767Z,5.47
2019-03-29T18:04:55.699Z,4.93
2019-03-29T18:06:59.576Z,5.80
2019-03-29T18:09:04.507Z,5.87
2019-03-29T18:11:08.406Z,5.97
2019-03-29T18:13:12.219Z,5.33
2019-03-29T18:15:16.647Z,5.83
2019-03-29T18:17:20.550Z,5.30
2019-03-29T18:19:24.450Z,5.50
2019-03-29T18:21:28.345Z,5.80
2019-03-29T18:23:32.760Z,5.70
2019-03-29T18:25:38.204Z,6.43
2019-03-29T18:27:42.021Z,5.70
2019-03-29T18:29:46.024Z,5.43
2019-03-29T18:31:50.023Z,6.33
2019-03-29T18:33:53.949Z,6.63
2019-03-29T18:35:57.943Z,6.00
2019-03-29T18:38:12.452Z,6.47
2019-03-29T18:40:22.237Z,6.50
2019-03-29T18:42:26.039Z,6.47
2019-03-29T18:44:29.945Z,6.03
2019-03-29T18:46:43.961Z,6.17
2019-03-29T18:48:39.381Z,7.23
2019-03-29T18:50:43.193Z,6.30
2019-03-29T18:52:46.717Z,6.70
2019-03-29T18:54:50.601Z,6.13
2019-03-29T18:56:54.509Z,6.87
2019-03-29T18:58:58.428Z,6.13
2019-03-29T19:01:01.974Z,6.70
2019-03-29T19:03:06.111Z,6.70
2019-03-29T19:05:16.275Z,6.65
2019-03-29T19:07:23.167Z,6.70
2019-03-29T19:09:31.699Z,6.30
2019-03-29T19:11:35.558Z,7.22
2019-03-29T19:13:39.769Z,6.97
2019-03-29T19:15:43.894Z,7.42
2019-03-29T19:17:47.432Z,7.30
2019-03-29T19:19:51.005Z,7.63
2019-03-29T19:21:55.185Z,7.65
2019-03-29T19:23:59.051Z,7.90
2019-03-29T19:26:03.215Z,7.67
2019-03-29T19:28:07.326Z,7.58
2019-03-29T19:30:11.997Z,6.97
2019-03-29T19:32:15.963Z,7.13
2019-03-29T19:34:20.151Z,8.13
2019-03-29T19:36:24.255Z,7.17
2019-03-29T19:38:28.393Z,8.35
2019-03-29T19:40:32.597Z,7.12
2019-03-29T19:42:36.436Z,8.40
2019-03-29T19:44:40.611Z,7.33
2019-03-29T19:46:45.029Z,8.73
2019-03-29T19:48:49.147Z,8.83
2019-03-29T19:50:53.384Z,8.03
2019-03-29T19:52:58.073Z,8.33
2019-03-29T19:55:02.157Z,8.55
2019-03-29T19:57:07.253Z,8.55
2019-03-29T19:59:11.341Z,8.23
2019-03-29T20:01:18.796Z,9.05
2019-03-29T20:03:23.060Z,8.25
2019-03-29T20:05:28.414Z,8.18
2019-03-29T20:07:32.587Z,8.10
2019-03-29T20:09:36.709Z,7.60
2019-03-29T20:11:40.534Z,8.20
2019-03-29T20:13:45.639Z,7.28
2019-03-29T20:15:49.744Z,8.28
2019-03-29T20:17:53.852Z,8.03
2019-03-29T20:19:57.753Z,8.95
2019-03-29T20:22:01.865Z,8.18
2019-03-29T20:24:06.077Z,8.63
2019-03-29T20:26:10.191Z,9.45
2019-03-29T20:28:14.297Z,9.85
2019-03-29T20:30:18.618Z,9.18
2019-03-29T20:32:22.444Z,8.50
2019-03-29T20:34:26.286Z,10.10
2019-03-29T20:36:30.933Z,9.20
2019-03-29T20:38:34.794Z,8.90
2019-03-29T20:40:39.163Z,9.78
2019-03-29T20:42:43.006Z,10.05
2019-03-29T20:44:47.188Z,9.65
2019-03-29T20:46:51.036Z,10.28
2019-03-29T20:48:55.205Z,10.32
2019-03-29T20:50:59.310Z,9.25
2019-03-29T20:53:03.526Z,11.08
2019-03-29T20:55:08.776Z,10.40
2019-03-29T20:57:14.500Z,10.80
2019-03-29T20:59:18.604Z,9.98
2019-03-29T21:01:22.936Z,9.45
2019-03-29T21:03:27.135Z,10.05
2019-03-29T21:05:30.952Z,10.15
2019-03-29T21:07:36.185Z,10.13
2019-03-29T21:09:40.402Z,10.43
2019-03-29T21:11:44.502Z,9.78
2019-03-29T21:13:48.895Z,11.25
2019-03-29T21:15:53.144Z,11.65
2019-03-29T21:17:58.114Z,11.10
2019-03-29T21:20:01.976Z,11.25
2019-03-29T21:22:06.198Z,10.80
2019-03-29T21:24:10.880Z,10.32
2019-03-29T21:26:14.990Z,11.95
2019-03-29T21:28:18.795Z,9.83
2019-03-29T21:30:23.130Z,11.43
2019-03-29T21:32:27.356Z,10.82
2019-03-29T21:34:31.574Z,11.15
2019-03-29T21:36:35.784Z,10.93
2019-03-29T21:38:39.991Z,10.82
2019-03-29T21:40:44.196Z,11.97
2019-03-29T21:42:48.433Z,10.25
2019-03-29T21:44:52.372Z,10.72
2019-03-29T21:46:57.896Z,10.35
2019-03-29T21:49:01.968Z,10.63
2019-03-29T21:51:06.075Z,10.15
2019-03-29T21:53:13.262Z,10.72
2019-03-29T21:55:17.471Z,11.00
2019-03-29T21:57:25.344Z,11.68
2019-03-29T21:59:29.182Z,11.12
2019-03-29T22:01:33.395Z,10.93
2019-03-29T22:03:37.611Z,10.68
2019-03-29T22:05:41.816Z,11.15
2019-03-29T22:07:47.508Z,11.40
2019-03-29T22:09:51.664Z,10.53
2019-03-29T22:11:55.792Z,10.90
2019-03-29T22:14:02.850Z,11.18
2019-03-29T22:16:07.703Z,10.95
2019-03-29T22:18:11.922Z,11.25
2019-03-29T22:20:16.110Z,10.25
2019-03-29T22:22:20.339Z,10.70
2019-03-29T22:24:26.085Z,10.82
2019-03-29T22:26:30.298Z,10.88
2019-03-29T22:28:34.393Z,10.63
2019-03-29T22:30:38.623Z,9.60
2019-03-29T22:32:42.820Z,9.85
2019-03-29T22:34:46.650Z,11.30
2019-03-29T22:36:50.844Z,10.75
2019-03-29T22:38:55.056Z,10.35
2019-03-29T22:40:59.271Z,11.08
2019-03-29T22:43:03.494Z,11.00
2019-03-29T22:45:07.968Z,11.33
2019-03-29T22:47:12.210Z,10.15
2019-03-29T22:49:16.040Z,11.35
2019-03-29T22:51:20.420Z,12.35
2019-03-29T22:53:24.274Z,10.50
2019-03-29T22:55:28.120Z,11.63
2019-03-29T22:57:31.979Z,11.50
2019-03-29T22:59:38.910Z,12.23
2019-03-29T23:01:45.322Z,11.18
2019-03-29T23:03:49.708Z,11.38
2019-03-29T23:05:53.524Z,11.18
2019-03-29T23:07:57.342Z,11.60
2019-03-29T23:10:01.510Z,11.20
2019-03-29T23:12:05.629Z,12.82
2019-03-29T23:14:09.850Z,11.53
2019-03-29T23:16:14.071Z,12.82
2019-03-29T23:18:18.268Z,11.95
2019-03-29T23:20:22.380Z,12.35
2019-03-29T23:22:26.240Z,13.08
2019-03-29T23:24:30.102Z,11.85
2019-03-29T23:26:34.321Z,11.35
2019-03-29T23:28:38.522Z,13.18
2019-03-29T23:30:42.729Z,12.23
2019-03-29T23:32:47.268Z,12.23
2019-03-29T23:34:51.565Z,12.75
2019-03-29T23:36:55.408Z,12.47
2019-03-29T23:38:59.570Z,11.68
2019-03-29T23:41:03.791Z,12.28
2019-03-29T23:43:07.619Z,13.30
2019-03-29T23:45:12.422Z,12.68
2019-03-29T23:47:17.356Z,12.45
2019-03-29T23:49:21.724Z,12.63
2019-03-29T23:51:25.969Z,12.90
2019-03-29T23:53:30.185Z,12.88
2019-03-29T23:55:34.405Z,13.25
2019-03-29T23:57:38.621Z,12.43
2019-03-29T23:59:42.829Z,14.25
